createdAt,value
2023-04-16T00:00:11.412Z,83.67
2023-04-16T00:02:39.541Z,326.13
2023-04-16T00:05:08.133Z,279.40
2023-04-16T00:07:36.092Z,245.90
2023-04-16T00:10:04.117Z,117.47
2023-04-16T00:12:32.140Z,263.77
2023-04-16T00:15:01.465Z,80.27
2023-04-16T00:17:29.469Z,103.20
2023-04-16T00:19:57.452Z,72.43
2023-04-16T00:22:25.412Z,71.80
2023-04-16T00:24:53.364Z,103.77
2023-04-16T00:27:21.391Z,320.17
2023-04-16T00:29:49.359Z,305.47
2023-04-16T00:32:18.914Z,225.77
2023-04-16T00:34:46.870Z,318.43
2023-04-16T00:37:14.840Z,297.80
2023-04-16T00:39:42.803Z,226.67
2023-04-16T00:42:11.340Z,239.43
2023-04-16T00:44:39.296Z,608.70
2023-04-16T00:47:08.179Z,347.17
2023-04-16T00:49:37.696Z,168.53
2023-04-16T00:52:05.921Z,217.80
2023-04-16T00:54:34.374Z,172.00
2023-04-16T00:57:02.702Z,166.67
2023-04-16T00:59:30.664Z,270.03
2023-04-16T01:01:58.768Z,353.93
2023-04-16T01:04:27.289Z,164.13
2023-04-16T01:06:57.161Z,296.23
2023-04-16T01:09:25.111Z,252.37
2023-04-16T01:11:53.112Z,328.23
2023-04-16T01:14:21.044Z,724.33
2023-04-16T01:16:49.054Z,130.13
2023-04-16T01:19:17.026Z,171.23
2023-04-16T01:21:46.734Z,464.20
2023-04-16T01:24:14.686Z,271.97
2023-04-16T01:26:42.683Z,247.60
2023-04-16T01:29:10.976Z,177.87
2023-04-16T01:31:39.177Z,286.27
2023-04-16T01:34:07.182Z,335.37
2023-04-16T01:36:35.245Z,41.67
2023-04-16T01:39:04.985Z,134.33
2023-04-16T01:41:33.032Z,128.53
2023-04-16T01:44:00.992Z,371.77
2023-04-16T01:46:30.067Z,50.50
2023-04-16T01:48:58.462Z,120.97
2023-04-16T01:51:27.297Z,188.63
2023-04-16T01:53:55.988Z,291.63
2023-04-16T01:56:25.428Z,180.63
2023-04-16T01:58:53.765Z,376.23
2023-04-16T02:01:21.956Z,122.80
2023-04-16T02:03:50.233Z,156.83
2023-04-16T02:06:18.215Z,95.03
2023-04-16T02:08:46.165Z,81.90
2023-04-16T02:11:14.121Z,69.53
2023-04-16T02:13:43.452Z,44.13
2023-04-16T02:16:11.553Z,238.10
2023-04-16T02:18:39.621Z,193.60
2023-04-16T02:21:07.879Z,196.83
2023-04-16T02:23:35.932Z,421.93
2023-04-16T02:26:04.733Z,58.77
2023-04-16T02:28:32.703Z,516.37
2023-04-16T02:31:02.084Z,61.73
2023-04-16T02:33:31.939Z,116.60
2023-04-16T02:36:00.381Z,148.93
2023-04-16T02:38:28.348Z,68.57
2023-04-16T02:40:56.334Z,86.30
2023-04-16T02:43:24.308Z,214.77
2023-04-16T02:45:52.270Z,179.73
2023-04-16T02:48:21.632Z,324.87
2023-04-16T02:50:49.573Z,295.67
2023-04-16T02:53:17.534Z,169.30
2023-04-16T02:55:52.486Z,198.17
2023-04-16T02:58:20.543Z,175.53
2023-04-16T03:00:49.071Z,239.20
2023-04-16T03:03:17.110Z,144.37
2023-04-16T03:05:46.535Z,267.83
2023-04-16T03:08:14.556Z,130.33
2023-04-16T03:10:42.591Z,215.57
2023-04-16T03:13:10.569Z,113.87
2023-04-16T03:15:38.611Z,72.97
2023-04-16T03:18:07.031Z,93.83
2023-04-16T03:20:34.982Z,94.57
2023-04-16T03:23:04.334Z,141.30
2023-04-16T03:25:32.260Z,51.60
2023-04-16T03:28:00.216Z,333.90
2023-04-16T03:30:28.152Z,296.17
2023-04-16T03:32:56.289Z,76.87
2023-04-16T03:35:24.274Z,99.00
2023-04-16T03:37:52.219Z,217.37
2023-04-16T03:40:21.594Z,465.27
2023-04-16T03:42:49.558Z,106.27
2023-04-16T03:45:17.712Z,130.00
2023-04-16T03:47:48.588Z,224.37
2023-04-16T03:50:16.687Z,137.63
2023-04-16T03:52:44.856Z,67.23
2023-04-16T03:55:12.786Z,124.67
2023-04-16T03:57:42.500Z,276.93
2023-04-16T04:00:11.121Z,285.90
2023-04-16T04:02:39.346Z,177.60
2023-04-16T04:05:07.844Z,173.83
2023-04-16T04:07:35.851Z,160.77
2023-04-16T04:10:03.994Z,121.73
2023-04-16T04:12:32.739Z,276.37
2023-04-16T04:15:02.072Z,137.20
2023-04-16T04:17:30.125Z,77.20
2023-04-16T04:20:01.288Z,663.60
2023-04-16T04:22:29.806Z,295.67
2023-04-16T04:24:57.868Z,76.90
2023-04-16T04:27:26.192Z,157.90
2023-04-16T04:29:54.793Z,67.93
2023-04-16T04:32:24.305Z,96.80
2023-04-16T04:34:52.273Z,83.90
2023-04-16T04:37:20.256Z,137.43
2023-04-16T04:39:48.208Z,202.97
2023-04-16T04:42:18.114Z,62.30
2023-04-16T04:44:46.681Z,86.47
2023-04-16T04:47:14.988Z,194.37
2023-04-16T04:49:44.307Z,133.50
2023-04-16T04:52:12.592Z,140.07
2023-04-16T04:54:41.675Z,112.73
2023-04-16T04:57:09.769Z,431.40
2023-04-16T04:59:37.731Z,149.53
2023-04-16T05:02:05.829Z,100.70
2023-04-16T05:04:33.878Z,116.27
2023-04-16T05:07:03.473Z,165.80
2023-04-16T05:09:31.680Z,643.30
2023-04-16T05:11:59.894Z,133.27
2023-04-16T05:14:27.845Z,293.50
2023-04-16T05:16:56.408Z,546.77
2023-04-16T05:19:25.571Z,280.27
2023-04-16T05:21:53.548Z,275.20
2023-04-16T05:24:23.372Z,67.77
2023-04-16T05:26:51.376Z,222.03
2023-04-16T05:29:19.387Z,227.33
2023-04-16T05:31:47.376Z,656.27
2023-04-16T05:34:15.489Z,130.33
2023-04-16T05:36:43.932Z,108.50
2023-04-16T05:39:12.065Z,93.07
2023-04-16T05:41:41.436Z,138.73
2023-04-16T05:44:09.443Z,153.93
2023-04-16T05:46:37.441Z,239.33
2023-04-16T05:49:05.446Z,203.50
2023-04-16T05:51:33.514Z,507.60
2023-04-16T05:54:01.476Z,302.60
2023-04-16T05:56:29.415Z,125.73
2023-04-16T05:58:58.765Z,89.03
2023-04-16T06:01:26.780Z,147.17
2023-04-16T06:03:54.863Z,514.57
2023-04-16T06:06:22.894Z,100.03
2023-04-16T06:08:50.857Z,104.10
2023-04-16T06:11:18.832Z,112.37
2023-04-16T06:13:46.794Z,301.00
2023-04-16T06:16:16.240Z,56.77
2023-04-16T06:18:44.257Z,180.27
2023-04-16T06:21:12.240Z,295.10
2023-04-16T06:23:40.306Z,133.53
2023-04-16T06:26:08.303Z,267.03
2023-04-16T06:28:36.258Z,131.43
2023-04-16T06:31:04.333Z,418.10
2023-04-16T06:33:33.742Z,83.27
2023-04-16T06:36:01.680Z,162.60
2023-04-16T06:38:29.666Z,92.17
2023-04-16T06:40:58.417Z,224.13
2023-04-16T06:43:27.030Z,390.10
2023-04-16T06:45:55.003Z,117.13
2023-04-16T06:48:22.963Z,298.83
2023-04-16T06:50:52.375Z,224.57
2023-04-16T06:53:20.402Z,295.93
2023-04-16T06:55:48.332Z,270.00
2023-04-16T06:58:16.402Z,223.53
2023-04-16T07:00:44.428Z,334.20
2023-04-16T07:03:12.674Z,247.20
2023-04-16T07:05:40.688Z,374.17
2023-04-16T07:08:10.576Z,115.73
2023-04-16T07:10:39.281Z,200.03
2023-04-16T07:13:07.270Z,264.17
2023-04-16T07:15:35.252Z,271.80
2023-04-16T07:18:03.322Z,536.20
2023-04-16T07:20:31.391Z,614.03
2023-04-16T07:23:00.393Z,364.30
2023-04-16T07:25:29.820Z,222.00
2023-04-16T07:27:57.827Z,237.90
2023-04-16T07:30:25.981Z,142.90
2023-04-16T07:32:55.822Z,589.90
2023-04-16T07:35:24.070Z,910.27
2023-04-16T07:37:52.140Z,349.27
2023-04-16T07:40:20.151Z,230.70
2023-04-16T07:42:49.639Z,465.30
2023-04-16T07:45:18.231Z,446.87
2023-04-16T07:47:46.662Z,352.60
2023-04-16T07:50:16.508Z,346.27
2023-04-16T07:52:45.398Z,222.63
2023-04-16T07:55:13.382Z,180.13
2023-04-16T07:57:42.007Z,565.67
2023-04-16T08:00:12.475Z,541.03
2023-04-16T08:02:40.618Z,290.23
2023-04-16T08:05:09.145Z,355.60
2023-04-16T08:07:37.137Z,217.60
2023-04-16T08:10:05.391Z,344.33
2023-04-16T08:12:33.490Z,199.03
2023-04-16T08:15:01.461Z,368.57
2023-04-16T08:17:30.861Z,196.83
2023-04-16T08:19:58.855Z,194.80
2023-04-16T08:22:27.359Z,435.40
2023-04-16T08:24:55.318Z,201.03
2023-04-16T08:27:23.256Z,273.67
2023-04-16T08:29:51.223Z,339.43
2023-04-16T08:32:19.264Z,236.43
2023-04-16T08:34:48.658Z,100.90
2023-04-16T08:37:16.618Z,368.47
2023-04-16T08:39:44.622Z,232.77
2023-04-16T08:42:17.367Z,299.40
2023-04-16T08:44:49.540Z,237.83
2023-04-16T08:47:17.984Z,210.47
2023-04-16T08:49:46.805Z,359.57
2023-04-16T08:52:20.853Z,775.73
2023-04-16T08:54:58.334Z,246.20
2023-04-16T08:57:31.601Z,139.30
2023-04-16T09:00:01.094Z,329.10
2023-04-16T09:02:29.684Z,146.80
2023-04-16T09:05:00.803Z,81.33
2023-04-16T09:07:30.801Z,194.83
2023-04-16T09:10:00.605Z,265.73
2023-04-16T09:12:28.778Z,198.57
2023-04-16T09:14:59.685Z,589.97
2023-04-16T09:17:28.279Z,729.20
2023-04-16T09:19:56.398Z,209.57
2023-04-16T09:22:24.400Z,414.63
2023-04-16T09:24:53.757Z,775.20
2023-04-16T09:27:23.742Z,471.03
2023-04-16T09:29:53.509Z,439.27
2023-04-16T09:32:27.667Z,498.53
2023-04-16T09:34:58.284Z,408.87
2023-04-16T09:37:27.341Z,220.07
2023-04-16T09:39:58.594Z,392.53
2023-04-16T09:42:28.942Z,384.00
2023-04-16T09:45:00.039Z,589.73
2023-04-16T09:47:41.074Z,232.03
2023-04-16T09:50:12.474Z,521.43
2023-04-16T09:52:41.329Z,513.47
2023-04-16T09:55:10.828Z,157.77
2023-04-16T09:57:39.431Z,196.10
2023-04-16T10:00:09.313Z,543.57
2023-04-16T10:02:42.023Z,644.20
2023-04-16T10:05:11.019Z,216.87
2023-04-16T10:07:39.147Z,235.40
2023-04-16T10:10:08.282Z,158.43
2023-04-16T10:12:37.595Z,586.83
2023-04-16T10:15:06.577Z,390.47
2023-04-16T10:17:34.981Z,332.70
2023-04-16T10:20:04.136Z,284.57
2023-04-16T10:22:32.415Z,287.63
2023-04-16T10:25:00.560Z,237.33
2023-04-16T10:27:29.142Z,236.37
2023-04-16T10:29:58.784Z,479.17
2023-04-16T10:32:28.685Z,371.37
2023-04-16T10:34:57.038Z,490.03
2023-04-16T10:37:31.223Z,421.83
2023-04-16T10:39:59.845Z,317.80
2023-04-16T10:42:28.073Z,509.33
2023-04-16T10:44:56.045Z,250.40
2023-04-16T10:47:27.201Z,587.10
2023-04-16T10:49:55.191Z,688.77
2023-04-16T10:52:25.059Z,293.07
2023-04-16T10:57:23.625Z,334.13
2023-04-16T10:59:51.741Z,567.63
2023-04-16T11:02:20.392Z,471.53
2023-04-16T11:04:50.722Z,336.03
2023-04-16T11:07:20.975Z,291.13
2023-04-16T11:10:00.477Z,345.40
2023-04-16T11:12:34.238Z,248.50
2023-04-16T11:15:03.564Z,288.10
2023-04-16T11:17:35.518Z,363.70
2023-04-16T11:20:19.072Z,459.73
2023-04-16T11:22:49.030Z,285.77
2023-04-16T11:25:21.153Z,481.30
2023-04-16T11:27:49.220Z,398.23
2023-04-16T11:30:17.964Z,421.43
2023-04-16T11:32:46.324Z,650.27
2023-04-16T11:35:18.640Z,742.80
2023-04-16T11:37:48.409Z,519.63
2023-04-16T11:40:16.504Z,719.47
2023-04-16T11:42:44.982Z,631.50
2023-04-16T11:45:13.983Z,658.63
2023-04-16T11:47:46.636Z,903.77
2023-04-16T11:50:24.461Z,574.33
2023-04-16T11:52:54.173Z,985.33
2023-04-16T11:55:22.734Z,713.17
2023-04-16T11:57:52.192Z,721.17
2023-04-16T12:00:24.905Z,616.53
2023-04-16T12:02:54.956Z,626.40
2023-04-16T12:05:35.134Z,591.97
2023-04-16T12:08:04.396Z,720.10
2023-04-16T12:10:35.105Z,594.70
2023-04-16T12:13:13.605Z,915.20
2023-04-16T12:15:48.977Z,664.93
2023-04-16T12:18:17.377Z,596.73
2023-04-16T12:20:47.522Z,615.57
2023-04-16T12:23:25.327Z,662.50
2023-04-16T12:25:53.441Z,222.60
2023-04-16T12:28:32.803Z,914.13
2023-04-16T12:31:01.129Z,999.90
2023-04-16T12:33:29.164Z,433.83
2023-04-16T12:35:58.705Z,453.33
2023-04-16T12:38:27.262Z,479.33
2023-04-16T12:40:57.130Z,573.43
2023-04-16T12:43:25.861Z,781.70
2023-04-16T12:45:53.940Z,794.07
2023-04-16T12:48:21.911Z,999.90
2023-04-16T12:50:49.877Z,774.47
2023-04-16T12:53:19.225Z,806.27
2023-04-16T12:55:47.259Z,639.40
2023-04-16T12:58:15.411Z,802.67
2023-04-16T13:00:43.482Z,439.13
2023-04-16T13:03:11.653Z,825.57
2023-04-16T13:05:39.746Z,928.13
2023-04-16T13:08:08.222Z,580.27
2023-04-16T13:10:38.129Z,224.43
2023-04-16T13:13:06.776Z,476.60
2023-04-16T13:15:34.773Z,759.73
2023-04-16T13:18:02.817Z,680.80
2023-04-16T13:20:30.917Z,475.17
2023-04-16T13:22:58.924Z,503.77
2023-04-16T13:25:26.966Z,342.17
2023-04-16T13:27:56.301Z,490.33
2023-04-16T13:30:25.424Z,360.93
2023-04-16T13:32:53.481Z,578.50
2023-04-16T13:35:21.478Z,343.23
2023-04-16T13:37:49.473Z,374.93
2023-04-16T13:40:17.786Z,400.27
2023-04-16T13:42:45.762Z,309.43
2023-04-16T13:45:15.105Z,792.13
2023-04-16T13:47:43.870Z,438.90
2023-04-16T13:50:12.139Z,778.47
2023-04-16T13:52:40.119Z,397.40
2023-04-16T13:55:09.630Z,673.00
2023-04-16T13:57:37.784Z,452.13
2023-04-16T14:00:07.141Z,381.50
2023-04-16T14:02:36.799Z,403.90
2023-04-16T14:05:06.910Z,398.47
2023-04-16T14:07:35.012Z,402.10
2023-04-16T14:10:03.591Z,478.40
2023-04-16T14:12:31.831Z,641.50
2023-04-16T14:14:59.845Z,436.77
2023-04-16T14:17:29.022Z,873.47
2023-04-16T14:19:58.672Z,430.60
2023-04-16T14:22:26.991Z,395.13
2023-04-16T14:24:55.055Z,649.13
2023-04-16T14:27:23.507Z,710.70
2023-04-16T14:29:52.306Z,577.90
2023-04-16T14:32:21.289Z,490.60
2023-04-16T14:34:49.306Z,511.97
2023-04-16T14:37:19.626Z,693.63
2023-04-16T14:39:47.621Z,675.70
2023-04-16T14:42:15.839Z,608.37
2023-04-16T14:44:44.074Z,680.93
2023-04-16T14:47:12.087Z,695.17
2023-04-16T14:49:40.123Z,455.40
2023-04-16T14:52:08.333Z,601.20
2023-04-16T14:54:37.813Z,576.17
2023-04-16T14:57:06.049Z,373.17
2023-04-16T14:59:34.078Z,450.47
2023-04-16T15:02:02.195Z,590.20
2023-04-16T15:04:31.522Z,541.23
2023-04-16T15:06:59.879Z,479.87
2023-04-16T15:09:28.040Z,506.23
2023-04-16T15:11:58.088Z,418.37
2023-04-16T15:14:26.399Z,370.47
2023-04-16T15:16:54.912Z,573.33
2023-04-16T15:19:23.097Z,407.07
2023-04-16T15:21:51.631Z,429.77
2023-04-16T15:24:19.659Z,507.53
2023-04-16T15:26:47.607Z,115.43
2023-04-16T15:29:17.146Z,297.70
2023-04-16T15:31:45.168Z,412.70
2023-04-16T15:34:13.475Z,575.97
2023-04-16T15:36:41.446Z,826.57
2023-04-16T15:39:09.869Z,336.67
2023-04-16T15:41:50.254Z,542.00
2023-04-16T15:44:26.755Z,532.13
2023-04-16T15:46:54.715Z,559.57
2023-04-16T15:49:22.684Z,815.20
2023-04-16T15:51:50.792Z,243.03
2023-04-16T15:54:19.257Z,379.10
2023-04-16T15:56:47.652Z,475.87
2023-04-16T15:59:15.637Z,454.27
2023-04-16T16:01:44.966Z,435.37
2023-04-16T16:04:13.049Z,198.97
2023-04-16T16:06:41.859Z,368.70
2023-04-16T16:09:10.355Z,379.57
2023-04-16T16:11:38.874Z,210.73
2023-04-16T16:14:06.841Z,472.67
2023-04-16T16:16:36.484Z,402.13
2023-04-16T16:19:05.975Z,684.13
2023-04-16T16:21:33.933Z,419.37
2023-04-16T16:24:01.954Z,626.07
2023-04-16T16:26:29.958Z,620.73
2023-04-16T16:28:58.112Z,295.93
2023-04-16T16:31:26.201Z,469.83
2023-04-16T16:33:54.260Z,457.17
2023-04-16T16:36:23.562Z,323.00
2023-04-16T16:38:51.639Z,240.07
2023-04-16T16:41:19.600Z,326.70
2023-04-16T16:43:47.573Z,440.73
2023-04-16T16:46:15.705Z,618.50
2023-04-16T16:48:43.711Z,210.07
2023-04-16T16:51:11.804Z,280.20
2023-04-16T16:53:41.149Z,235.40
2023-04-16T16:56:09.129Z,280.93
2023-04-16T16:58:37.101Z,176.80
2023-04-16T17:01:05.102Z,165.40
2023-04-16T17:03:33.216Z,258.50
2023-04-16T17:06:01.295Z,149.90
2023-04-16T17:08:29.311Z,210.27
2023-04-16T17:10:58.792Z,147.17
2023-04-16T17:13:26.750Z,299.37
2023-04-16T17:15:54.704Z,184.43
2023-04-16T17:18:22.673Z,230.13
2023-04-16T17:20:50.611Z,115.13
2023-04-16T17:23:19.077Z,134.60
2023-04-16T17:25:47.129Z,145.07
2023-04-16T17:28:16.471Z,237.53
2023-04-16T17:30:44.737Z,193.93
2023-04-16T17:33:12.716Z,248.97
2023-04-16T17:35:41.058Z,169.53
2023-04-16T17:38:09.052Z,144.27
2023-04-16T17:40:37.066Z,169.03
2023-04-16T17:43:05.051Z,179.97
2023-04-16T17:45:34.882Z,163.80
2023-04-16T17:48:03.237Z,78.87
2023-04-16T17:50:31.266Z,188.60
2023-04-16T17:53:03.738Z,183.13
2023-04-16T17:55:32.209Z,71.83
2023-04-16T17:58:02.568Z,177.13
2023-04-16T18:00:30.602Z,231.67
2023-04-16T18:03:00.167Z,148.97
2023-04-16T18:05:28.484Z,106.30
2023-04-16T18:07:56.691Z,110.00
2023-04-16T18:10:24.884Z,146.33
2023-04-16T18:12:52.843Z,561.73
2023-04-16T18:15:20.926Z,157.73
2023-04-16T18:17:48.900Z,150.23
2023-04-16T18:20:19.696Z,205.77
2023-04-16T18:22:47.639Z,204.03
2023-04-16T18:25:16.241Z,146.97
2023-04-16T18:27:44.813Z,240.17
2023-04-16T18:30:19.879Z,141.30
2023-04-16T18:33:11.532Z,259.07
2023-04-16T18:35:41.487Z,131.90
2023-04-16T18:38:09.458Z,99.57
2023-04-16T18:40:37.713Z,45.33
2023-04-16T18:43:05.743Z,171.23
2023-04-16T18:45:34.515Z,77.70
2023-04-16T18:48:04.150Z,126.33
2023-04-16T18:50:32.175Z,149.70
2023-04-16T18:53:01.472Z,63.53
2023-04-16T18:55:30.116Z,138.23
2023-04-16T18:57:58.064Z,99.50
2023-04-16T19:00:26.156Z,69.33
2023-04-16T19:02:54.343Z,78.47
2023-04-16T19:05:23.075Z,50.93
2023-04-16T19:07:51.090Z,38.80
2023-04-16T19:10:20.569Z,74.10
2023-04-16T19:12:48.847Z,54.63
2023-04-16T19:15:16.937Z,92.07
2023-04-16T19:17:44.907Z,65.73
2023-04-16T19:20:13.269Z,138.63
2023-04-16T19:22:41.206Z,125.13
2023-04-16T19:25:09.972Z,39.27
2023-04-16T19:27:39.844Z,49.70
2023-04-16T19:30:09.006Z,213.87
2023-04-16T19:32:36.960Z,104.67
2023-04-16T19:35:05.840Z,45.20
2023-04-16T19:37:33.776Z,152.90
2023-04-16T19:40:02.076Z,58.93
2023-04-16T19:42:30.098Z,242.27
2023-04-16T19:44:59.753Z,89.10
2023-04-16T19:47:27.722Z,136.67
2023-04-16T19:49:55.745Z,290.87
2023-04-16T19:52:23.943Z,232.97
2023-04-16T19:54:51.928Z,495.30
2023-04-16T19:57:19.863Z,220.23
2023-04-16T19:59:47.956Z,133.97
2023-04-16T20:02:17.639Z,45.80
2023-04-16T20:04:48.083Z,64.70
2023-04-16T20:07:16.081Z,41.27
2023-04-16T20:09:44.171Z,352.90
2023-04-16T20:12:12.625Z,278.63
2023-04-16T20:14:41.989Z,96.30
2023-04-16T20:17:10.309Z,52.13
2023-04-16T20:19:40.247Z,66.63
2023-04-16T20:22:09.327Z,54.03
2023-04-16T20:24:38.524Z,83.53
2023-04-16T20:27:06.783Z,115.90
2023-04-16T20:29:34.818Z,61.47
2023-04-16T20:32:02.833Z,89.80
2023-04-16T20:34:31.020Z,97.97
2023-04-16T20:37:00.642Z,65.20
2023-04-16T20:39:28.698Z,95.57
2023-04-16T20:41:57.559Z,84.07
2023-04-16T20:44:26.449Z,71.67
2023-04-16T20:46:54.923Z,129.60
2023-04-16T20:49:23.052Z,93.47
2023-04-16T20:51:51.007Z,54.83
2023-04-16T20:54:20.427Z,152.80
2023-04-16T20:56:50.307Z,69.47
2023-04-16T20:59:18.466Z,62.73
2023-04-16T21:01:47.566Z,141.37
2023-04-16T21:04:15.860Z,105.07
2023-04-16T21:06:44.083Z,123.77
2023-04-16T21:09:12.687Z,70.63
2023-04-16T21:11:43.503Z,80.37
2023-04-16T21:14:11.591Z,58.97
2023-04-16T21:16:39.738Z,58.83
2023-04-16T21:19:08.767Z,86.53
2023-04-16T21:21:38.229Z,340.63
2023-04-16T21:24:06.693Z,86.13
2023-04-16T21:26:34.651Z,68.03
2023-04-16T21:29:04.101Z,103.83
2023-04-16T21:31:32.128Z,83.67
2023-04-16T21:34:00.121Z,73.60
2023-04-16T21:36:29.222Z,49.80
2023-04-16T21:38:57.168Z,88.73
2023-04-16T21:41:25.239Z,157.87
2023-04-16T21:43:53.187Z,76.37
2023-04-16T21:46:22.711Z,71.23
2023-04-16T21:48:50.807Z,72.57
2023-04-16T21:51:20.082Z,86.57
2023-04-16T21:53:48.029Z,78.87
2023-04-16T21:56:16.002Z,76.03
2023-04-16T21:58:43.960Z,53.97
2023-04-16T22:01:12.029Z,114.90
2023-04-16T22:03:41.524Z,126.20
2023-04-16T22:06:09.812Z,63.67
2023-04-16T22:08:37.908Z,362.90
2023-04-16T22:11:05.935Z,79.40
2023-04-16T22:13:33.879Z,147.20
2023-04-16T22:16:02.414Z,269.47
2023-04-16T22:18:32.960Z,138.47
2023-04-16T22:21:02.877Z,188.80
2023-04-16T22:23:31.062Z,55.90
2023-04-16T22:25:58.988Z,48.47
2023-04-16T22:28:27.262Z,102.07
2023-04-16T22:30:55.209Z,196.40
2023-04-16T22:33:23.199Z,59.13
2023-04-16T22:35:51.125Z,39.13
2023-04-16T22:38:21.374Z,150.73
2023-04-16T22:40:49.702Z,113.50
2023-04-16T22:43:18.067Z,171.80
2023-04-16T22:45:47.192Z,234.07
2023-04-16T22:48:15.521Z,116.27
2023-04-16T22:50:48.355Z,63.40
2023-04-16T22:53:16.436Z,145.87
2023-04-16T22:55:45.838Z,112.73
2023-04-16T22:58:13.789Z,80.37
2023-04-16T23:00:41.802Z,122.87
2023-04-16T23:03:09.989Z,93.23
2023-04-16T23:05:38.031Z,72.53
2023-04-16T23:08:06.242Z,114.10
2023-04-16T23:10:34.213Z,84.77
2023-04-16T23:13:03.703Z,130.37
2023-04-16T23:15:31.694Z,70.20
2023-04-16T23:17:59.768Z,123.87
2023-04-16T23:20:27.729Z,69.90
2023-04-16T23:22:55.669Z,169.30
2023-04-16T23:25:23.631Z,141.80
2023-04-16T23:27:51.592Z,75.00
2023-04-16T23:30:21.053Z,149.93
2023-04-16T23:32:49.055Z,142.03
2023-04-16T23:35:22.746Z,98.77
2023-04-16T23:37:50.872Z,103.17
2023-04-16T23:40:19.068Z,95.43
2023-04-16T23:42:47.081Z,107.97
2023-04-16T23:45:15.062Z,93.43
2023-04-16T23:47:44.489Z,207.97
2023-04-16T23:50:12.855Z,44.70
2023-04-16T23:52:40.971Z,91.80
2023-04-16T23:55:09.464Z,90.50
2023-04-16T23:57:37.441Z,43.93
